sensor_id;sensor_type;location;lat;lon;timestamp;P1;durP1;ratioP1;P2;durP2;ratioP2
8708;SDS011;4391;48.678;9.280;2022-10-16T00:00:36;8.00;;;1.60;;
8708;SDS011;4391;48.678;9.280;2022-10-16T00:03:06;5.88;;;1.38;;
8708;SDS011;4391;48.678;9.280;2022-10-16T00:05:37;6.20;;;1.50;;
8708;SDS011;4391;48.678;9.280;2022-10-16T00:08:05;6.38;;;1.85;;
8708;SDS011;4391;48.678;9.280;2022-10-16T00:10:31;4.32;;;2.05;;
8708;SDS011;4391;48.678;9.280;2022-10-16T00:12:58;3.60;;;1.40;;
8708;SDS011;4391;48.678;9.280;2022-10-16T00:15:25;5.65;;;1.75;;
8708;SDS011;4391;48.678;9.280;2022-10-16T00:17:52;5.75;;;1.80;;
8708;SDS011;4391;48.678;9.280;2022-10-16T00:20:20;10.93;;;1.65;;
8708;SDS011;4391;48.678;9.280;2022-10-16T00:22:47;10.43;;;1.67;;
8708;SDS011;4391;48.678;9.280;2022-10-16T00:25:14;8.00;;;1.60;;
8708;SDS011;4391;48.678;9.280;2022-10-16T00:27:40;4.00;;;1.70;;
8708;SDS011;4391;48.678;9.280;2022-10-16T00:30:07;10.02;;;1.67;;
8708;SDS011;4391;48.678;9.280;2022-10-16T00:32:35;8.13;;;2.03;;
8708;SDS011;4391;48.678;9.280;2022-10-16T00:35:01;6.28;;;1.83;;
8708;SDS011;4391;48.678;9.280;2022-10-16T00:37:30;6.27;;;2.50;;
8708;SDS011;4391;48.678;9.280;2022-10-16T00:39:56;6.20;;;2.08;;
8708;SDS011;4391;48.678;9.280;2022-10-16T00:42:23;8.55;;;2.00;;
8708;SDS011;4391;48.678;9.280;2022-10-16T00:44:51;4.35;;;2.08;;
8708;SDS011;4391;48.678;9.280;2022-10-16T00:47:22;7.93;;;2.13;;
8708;SDS011;4391;48.678;9.280;2022-10-16T00:49:53;5.83;;;1.67;;
8708;SDS011;4391;48.678;9.280;2022-10-16T00:52:24;5.13;;;1.85;;
8708;SDS011;4391;48.678;9.280;2022-10-16T00:54:52;4.60;;;2.20;;
8708;SDS011;4391;48.678;9.280;2022-10-16T00:57:20;6.10;;;1.35;;
8708;SDS011;4391;48.678;9.280;2022-10-16T00:59:48;5.07;;;1.92;;
8708;SDS011;4391;48.678;9.280;2022-10-16T01:02:15;5.80;;;1.83;;
8708;SDS011;4391;48.678;9.280;2022-10-16T01:04:43;7.90;;;1.60;;
8708;SDS011;4391;48.678;9.280;2022-10-16T01:07:12;5.18;;;2.00;;
8708;SDS011;4391;48.678;9.280;2022-10-16T01:09:53;6.38;;;2.08;;
8708;SDS011;4391;48.678;9.280;2022-10-16T01:12:30;8.98;;;1.63;;
8708;SDS011;4391;48.678;9.280;2022-10-16T01:15:06;8.40;;;2.10;;
8708;SDS011;4391;48.678;9.280;2022-10-16T01:17:38;5.43;;;1.95;;
8708;SDS011;4391;48.678;9.280;2022-10-16T01:20:10;5.75;;;1.70;;
8708;SDS011;4391;48.678;9.280;2022-10-16T01:22:48;18.08;;;2.08;;
8708;SDS011;4391;48.678;9.280;2022-10-16T01:25:29;8.15;;;1.85;;
8708;SDS011;4391;48.678;9.280;2022-10-16T01:28:05;10.60;;;1.93;;
8708;SDS011;4391;48.678;9.280;2022-10-16T01:30:37;4.85;;;1.30;;
8708;SDS011;4391;48.678;9.280;2022-10-16T01:33:08;4.00;;;1.90;;
8708;SDS011;4391;48.678;9.280;2022-10-16T01:35:40;7.07;;;1.65;;
8708;SDS011;4391;48.678;9.280;2022-10-16T01:38:12;11.18;;;1.52;;
8708;SDS011;4391;48.678;9.280;2022-10-16T01:40:44;7.47;;;1.90;;
8708;SDS011;4391;48.678;9.280;2022-10-16T01:43:16;3.97;;;1.58;;
8708;SDS011;4391;48.678;9.280;2022-10-16T01:45:46;6.40;;;1.70;;
8708;SDS011;4391;48.678;9.280;2022-10-16T01:48:15;4.13;;;1.67;;
8708;SDS011;4391;48.678;9.280;2022-10-16T01:50:48;4.20;;;1.83;;
8708;SDS011;4391;48.678;9.280;2022-10-16T01:53:20;7.13;;;2.30;;
8708;SDS011;4391;48.678;9.280;2022-10-16T01:55:49;8.70;;;2.22;;
8708;SDS011;4391;48.678;9.280;2022-10-16T01:58:19;8.55;;;2.03;;
8708;SDS011;4391;48.678;9.280;2022-10-16T02:00:48;4.55;;;1.67;;
8708;SDS011;4391;48.678;9.280;2022-10-16T02:03:18;6.78;;;2.40;;
8708;SDS011;4391;48.678;9.280;2022-10-16T02:05:46;7.83;;;1.73;;
8708;SDS011;4391;48.678;9.280;2022-10-16T02:08:16;5.38;;;1.67;;
8708;SDS011;4391;48.678;9.280;2022-10-16T02:10:43;7.50;;;1.90;;
8708;SDS011;4391;48.678;9.280;2022-10-16T02:13:13;8.35;;;2.08;;
8708;SDS011;4391;48.678;9.280;2022-10-16T02:15:45;6.43;;;1.90;;
8708;SDS011;4391;48.678;9.280;2022-10-16T02:18:12;7.97;;;1.80;;
8708;SDS011;4391;48.678;9.280;2022-10-16T02:20:40;4.47;;;1.70;;
8708;SDS011;4391;48.678;9.280;2022-10-16T02:23:17;5.60;;;1.83;;
8708;SDS011;4391;48.678;9.280;2022-10-16T02:25:55;7.35;;;2.00;;
8708;SDS011;4391;48.678;9.280;2022-10-16T02:28:26;4.45;;;1.73;;
8708;SDS011;4391;48.678;9.280;2022-10-16T02:30:57;4.63;;;1.80;;
8708;SDS011;4391;48.678;9.280;2022-10-16T02:33:27;7.35;;;2.13;;
8708;SDS011;4391;48.678;9.280;2022-10-16T02:35:56;6.13;;;2.00;;
8708;SDS011;4391;48.678;9.280;2022-10-16T02:38:23;4.88;;;1.50;;
8708;SDS011;4391;48.678;9.280;2022-10-16T02:40:51;5.30;;;1.88;;
8708;SDS011;4391;48.678;9.280;2022-10-16T02:43:18;6.70;;;2.10;;
8708;SDS011;4391;48.678;9.280;2022-10-16T02:45:45;7.07;;;1.70;;
8708;SDS011;4391;48.678;9.280;2022-10-16T02:48:13;4.18;;;2.00;;
8708;SDS011;4391;48.678;9.280;2022-10-16T02:50:40;5.18;;;1.58;;
8708;SDS011;4391;48.678;9.280;2022-10-16T02:53:07;4.60;;;2.00;;
8708;SDS011;4391;48.678;9.280;2022-10-16T02:55:34;7.17;;;1.60;;
8708;SDS011;4391;48.678;9.280;2022-10-16T02:58:00;10.00;;;1.90;;
8708;SDS011;4391;48.678;9.280;2022-10-16T03:00:27;5.70;;;1.70;;
8708;SDS011;4391;48.678;9.280;2022-10-16T03:02:54;9.25;;;2.22;;
8708;SDS011;4391;48.678;9.280;2022-10-16T03:05:22;8.23;;;2.03;;
8708;SDS011;4391;48.678;9.280;2022-10-16T03:07:49;4.97;;;1.70;;
8708;SDS011;4391;48.678;9.280;2022-10-16T03:10:17;7.00;;;2.00;;
8708;SDS011;4391;48.678;9.280;2022-10-16T03:12:44;6.20;;;2.17;;
8708;SDS011;4391;48.678;9.280;2022-10-16T03:15:11;3.95;;;1.60;;
8708;SDS011;4391;48.678;9.280;2022-10-16T03:17:38;6.13;;;2.33;;
8708;SDS011;4391;48.678;9.280;2022-10-16T03:20:05;4.50;;;1.83;;
8708;SDS011;4391;48.678;9.280;2022-10-16T03:22:33;6.00;;;1.98;;
8708;SDS011;4391;48.678;9.280;2022-10-16T03:25:00;6.18;;;2.00;;
8708;SDS011;4391;48.678;9.280;2022-10-16T03:27:27;6.60;;;1.90;;
8708;SDS011;4391;48.678;9.280;2022-10-16T03:29:54;8.50;;;2.28;;
8708;SDS011;4391;48.678;9.280;2022-10-16T03:32:21;6.27;;;2.13;;
8708;SDS011;4391;48.678;9.280;2022-10-16T03:34:49;7.60;;;2.22;;
8708;SDS011;4391;48.678;9.280;2022-10-16T03:37:18;7.47;;;2.10;;
8708;SDS011;4391;48.678;9.280;2022-10-16T03:39:46;4.10;;;1.80;;
8708;SDS011;4391;48.678;9.280;2022-10-16T03:42:12;9.80;;;2.63;;
8708;SDS011;4391;48.678;9.280;2022-10-16T03:44:39;7.73;;;1.90;;
8708;SDS011;4391;48.678;9.280;2022-10-16T03:47:06;5.18;;;1.98;;
8708;SDS011;4391;48.678;9.280;2022-10-16T03:49:33;9.73;;;2.35;;
8708;SDS011;4391;48.678;9.280;2022-10-16T03:51:59;6.32;;;2.20;;
8708;SDS011;4391;48.678;9.280;2022-10-16T03:54:26;7.53;;;2.10;;
8708;SDS011;4391;48.678;9.280;2022-10-16T03:56:54;5.63;;;2.10;;
8708;SDS011;4391;48.678;9.280;2022-10-16T03:59:21;6.10;;;2.05;;
8708;SDS011;4391;48.678;9.280;2022-10-16T04:01:48;4.65;;;2.00;;
8708;SDS011;4391;48.678;9.280;2022-10-16T04:04:14;5.93;;;1.92;;
8708;SDS011;4391;48.678;9.280;2022-10-16T04:06:41;6.18;;;1.92;;
8708;SDS011;4391;48.678;9.280;2022-10-16T04:09:08;7.20;;;2.10;;
8708;SDS011;4391;48.678;9.280;2022-10-16T04:11:35;6.55;;;2.40;;
8708;SDS011;4391;48.678;9.280;2022-10-16T04:14:03;7.55;;;1.85;;
8708;SDS011;4391;48.678;9.280;2022-10-16T04:16:29;4.93;;;2.08;;
8708;SDS011;4391;48.678;9.280;2022-10-16T04:18:56;7.20;;;2.30;;
8708;SDS011;4391;48.678;9.280;2022-10-16T04:21:23;7.10;;;2.27;;
8708;SDS011;4391;48.678;9.280;2022-10-16T04:23:50;4.55;;;1.90;;
8708;SDS011;4391;48.678;9.280;2022-10-16T04:26:16;4.82;;;2.20;;
8708;SDS011;4391;48.678;9.280;2022-10-16T04:28:43;6.65;;;2.08;;
8708;SDS011;4391;48.678;9.280;2022-10-16T04:31:12;6.82;;;2.10;;
8708;SDS011;4391;48.678;9.280;2022-10-16T04:33:38;5.77;;;1.97;;
8708;SDS011;4391;48.678;9.280;2022-10-16T04:36:08;5.72;;;2.10;;
8708;SDS011;4391;48.678;9.280;2022-10-16T04:38:34;6.63;;;2.30;;
8708;SDS011;4391;48.678;9.280;2022-10-16T04:41:02;9.20;;;2.10;;
8708;SDS011;4391;48.678;9.280;2022-10-16T04:43:29;6.20;;;2.28;;
8708;SDS011;4391;48.678;9.280;2022-10-16T04:45:56;7.67;;;2.23;;
8708;SDS011;4391;48.678;9.280;2022-10-16T04:48:24;8.77;;;1.92;;
8708;SDS011;4391;48.678;9.280;2022-10-16T04:50:51;8.13;;;2.00;;
8708;SDS011;4391;48.678;9.280;2022-10-16T04:53:17;7.38;;;2.40;;
8708;SDS011;4391;48.678;9.280;2022-10-16T04:55:44;7.03;;;2.08;;
8708;SDS011;4391;48.678;9.280;2022-10-16T04:58:11;10.07;;;2.53;;
8708;SDS011;4391;48.678;9.280;2022-10-16T05:00:38;8.30;;;2.00;;
8708;SDS011;4391;48.678;9.280;2022-10-16T05:03:05;8.43;;;1.83;;
8708;SDS011;4391;48.678;9.280;2022-10-16T05:05:34;4.75;;;1.83;;
8708;SDS011;4391;48.678;9.280;2022-10-16T05:08:02;6.00;;;2.30;;
8708;SDS011;4391;48.678;9.280;2022-10-16T05:10:29;4.87;;;2.20;;
8708;SDS011;4391;48.678;9.280;2022-10-16T05:12:56;4.85;;;1.65;;
8708;SDS011;4391;48.678;9.280;2022-10-16T05:15:22;8.20;;;2.08;;
8708;SDS011;4391;48.678;9.280;2022-10-16T05:17:52;7.85;;;1.75;;
8708;SDS011;4391;48.678;9.280;2022-10-16T05:20:19;4.53;;;2.15;;
8708;SDS011;4391;48.678;9.280;2022-10-16T05:22:47;8.80;;;1.90;;
8708;SDS011;4391;48.678;9.280;2022-10-16T05:25:14;6.97;;;2.13;;
8708;SDS011;4391;48.678;9.280;2022-10-16T05:27:41;4.40;;;2.03;;
8708;SDS011;4391;48.678;9.280;2022-10-16T05:30:08;8.52;;;2.30;;
8708;SDS011;4391;48.678;9.280;2022-10-16T05:32:35;6.40;;;2.20;;
8708;SDS011;4391;48.678;9.280;2022-10-16T05:35:02;6.33;;;2.53;;
8708;SDS011;4391;48.678;9.280;2022-10-16T05:37:29;6.07;;;2.10;;
8708;SDS011;4391;48.678;9.280;2022-10-16T05:39:57;5.57;;;1.95;;
8708;SDS011;4391;48.678;9.280;2022-10-16T05:42:24;9.30;;;2.53;;
8708;SDS011;4391;48.678;9.280;2022-10-16T05:44:50;5.35;;;2.10;;
8708;SDS011;4391;48.678;9.280;2022-10-16T05:47:17;5.67;;;1.93;;
8708;SDS011;4391;48.678;9.280;2022-10-16T05:49:45;8.73;;;2.83;;
8708;SDS011;4391;48.678;9.280;2022-10-16T05:52:12;4.90;;;2.00;;
8708;SDS011;4391;48.678;9.280;2022-10-16T05:54:39;4.82;;;1.67;;
8708;SDS011;4391;48.678;9.280;2022-10-16T05:57:07;6.13;;;1.80;;
8708;SDS011;4391;48.678;9.280;2022-10-16T05:59:34;6.33;;;1.90;;
8708;SDS011;4391;48.678;9.280;2022-10-16T06:02:01;5.65;;;1.60;;
8708;SDS011;4391;48.678;9.280;2022-10-16T06:04:28;4.70;;;1.90;;
8708;SDS011;4391;48.678;9.280;2022-10-16T06:06:57;6.22;;;1.88;;
8708;SDS011;4391;48.678;9.280;2022-10-16T06:09:25;5.75;;;1.90;;
8708;SDS011;4391;48.678;9.280;2022-10-16T06:11:52;4.17;;;1.60;;
8708;SDS011;4391;48.678;9.280;2022-10-16T06:14:20;14.90;;;2.95;;
8708;SDS011;4391;48.678;9.280;2022-10-16T06:16:47;6.03;;;2.70;;
8708;SDS011;4391;48.678;9.280;2022-10-16T06:19:14;12.07;;;3.92;;
8708;SDS011;4391;48.678;9.280;2022-10-16T06:21:41;9.50;;;4.38;;
8708;SDS011;4391;48.678;9.280;2022-10-16T06:24:08;8.67;;;3.43;;
8708;SDS011;4391;48.678;9.280;2022-10-16T06:26:35;11.73;;;4.43;;
8708;SDS011;4391;48.678;9.280;2022-10-16T06:29:03;9.85;;;4.10;;
8708;SDS011;4391;48.678;9.280;2022-10-16T06:31:31;9.77;;;3.28;;
8708;SDS011;4391;48.678;9.280;2022-10-16T06:33:58;6.97;;;3.30;;
8708;SDS011;4391;48.678;9.280;2022-10-16T06:36:26;9.07;;;3.33;;
8708;SDS011;4391;48.678;9.280;2022-10-16T06:38:53;10.00;;;3.17;;
8708;SDS011;4391;48.678;9.280;2022-10-16T06:41:21;8.40;;;2.78;;
8708;SDS011;4391;48.678;9.280;2022-10-16T06:43:48;10.13;;;3.30;;
8708;SDS011;4391;48.678;9.280;2022-10-16T06:46:16;8.20;;;3.20;;
8708;SDS011;4391;48.678;9.280;2022-10-16T06:48:46;7.03;;;3.03;;
8708;SDS011;4391;48.678;9.280;2022-10-16T06:51:14;8.73;;;3.10;;
8708;SDS011;4391;48.678;9.280;2022-10-16T06:53:43;8.15;;;2.90;;
8708;SDS011;4391;48.678;9.280;2022-10-16T06:56:11;5.55;;;2.67;;
8708;SDS011;4391;48.678;9.280;2022-10-16T06:58:39;7.50;;;3.17;;
8708;SDS011;4391;48.678;9.280;2022-10-16T07:01:07;6.43;;;3.17;;
8708;SDS011;4391;48.678;9.280;2022-10-16T07:03:35;4.70;;;2.10;;
8708;SDS011;4391;48.678;9.280;2022-10-16T07:06:05;6.82;;;2.63;;
8708;SDS011;4391;48.678;9.280;2022-10-16T07:08:33;5.68;;;2.40;;
8708;SDS011;4391;48.678;9.280;2022-10-16T07:11:00;7.18;;;2.78;;
8708;SDS011;4391;48.678;9.280;2022-10-16T07:13:27;8.57;;;2.60;;
8708;SDS011;4391;48.678;9.280;2022-10-16T07:15:54;9.35;;;2.53;;
8708;SDS011;4391;48.678;9.280;2022-10-16T07:18:21;7.85;;;3.13;;
8708;SDS011;4391;48.678;9.280;2022-10-16T07:20:51;8.50;;;2.40;;
8708;SDS011;4391;48.678;9.280;2022-10-16T07:23:19;11.18;;;6.65;;
8708;SDS011;4391;48.678;9.280;2022-10-16T07:25:52;10.57;;;5.40;;
8708;SDS011;4391;48.678;9.280;2022-10-16T07:28:20;5.72;;;3.05;;
8708;SDS011;4391;48.678;9.280;2022-10-16T07:30:47;7.45;;;2.53;;
8708;SDS011;4391;48.678;9.280;2022-10-16T07:33:14;8.43;;;4.18;;
8708;SDS011;4391;48.678;9.280;2022-10-16T07:35:46;10.75;;;4.18;;
8708;SDS011;4391;48.678;9.280;2022-10-16T07:38:14;6.63;;;2.53;;
8708;SDS011;4391;48.678;9.280;2022-10-16T07:40:42;5.80;;;1.77;;
8708;SDS011;4391;48.678;9.280;2022-10-16T07:43:09;8.57;;;2.30;;
8708;SDS011;4391;48.678;9.280;2022-10-16T07:45:36;6.70;;;2.50;;
8708;SDS011;4391;48.678;9.280;2022-10-16T07:48:03;4.68;;;1.98;;
8708;SDS011;4391;48.678;9.280;2022-10-16T07:50:30;11.43;;;2.83;;
8708;SDS011;4391;48.678;9.280;2022-10-16T07:52:57;6.35;;;2.00;;
8708;SDS011;4391;48.678;9.280;2022-10-16T07:55:23;8.32;;;3.60;;
8708;SDS011;4391;48.678;9.280;2022-10-16T07:57:51;8.70;;;3.05;;
8708;SDS011;4391;48.678;9.280;2022-10-16T08:00:18;5.05;;;2.03;;
8708;SDS011;4391;48.678;9.280;2022-10-16T08:02:45;5.40;;;2.40;;
8708;SDS011;4391;48.678;9.280;2022-10-16T08:05:12;5.78;;;2.58;;
8708;SDS011;4391;48.678;9.280;2022-10-16T08:07:39;6.47;;;2.50;;
8708;SDS011;4391;48.678;9.280;2022-10-16T08:10:06;4.28;;;1.73;;
8708;SDS011;4391;48.678;9.280;2022-10-16T08:12:33;6.30;;;2.15;;
8708;SDS011;4391;48.678;9.280;2022-10-16T08:15:01;6.50;;;2.23;;
8708;SDS011;4391;48.678;9.280;2022-10-16T08:17:28;7.30;;;2.40;;
8708;SDS011;4391;48.678;9.280;2022-10-16T08:19:54;10.27;;;2.92;;
8708;SDS011;4391;48.678;9.280;2022-10-16T08:22:21;7.28;;;2.15;;
8708;SDS011;4391;48.678;9.280;2022-10-16T08:24:48;6.45;;;2.08;;
8708;SDS011;4391;48.678;9.280;2022-10-16T08:27:15;9.97;;;2.40;;
8708;SDS011;4391;48.678;9.280;2022-10-16T08:29:41;5.32;;;1.80;;
8708;SDS011;4391;48.678;9.280;2022-10-16T08:32:09;6.95;;;2.00;;
8708;SDS011;4391;48.678;9.280;2022-10-16T08:34:36;13.73;;;2.25;;
8708;SDS011;4391;48.678;9.280;2022-10-16T08:37:03;5.32;;;1.85;;
8708;SDS011;4391;48.678;9.280;2022-10-16T08:39:30;8.47;;;1.50;;
8708;SDS011;4391;48.678;9.280;2022-10-16T08:42:04;7.82;;;1.90;;
8708;SDS011;4391;48.678;9.280;2022-10-16T08:44:44;5.15;;;1.73;;
8708;SDS011;4391;48.678;9.280;2022-10-16T08:47:39;9.20;;;2.75;;
8708;SDS011;4391;48.678;9.280;2022-10-16T08:50:17;4.35;;;1.67;;
8708;SDS011;4391;48.678;9.280;2022-10-16T08:52:49;5.47;;;2.30;;
8708;SDS011;4391;48.678;9.280;2022-10-16T08:55:17;7.95;;;1.58;;
8708;SDS011;4391;48.678;9.280;2022-10-16T08:57:57;5.10;;;1.40;;
8708;SDS011;4391;48.678;9.280;2022-10-16T09:00:24;6.60;;;1.63;;
8708;SDS011;4391;48.678;9.280;2022-10-16T09:02:55;6.35;;;1.90;;
8708;SDS011;4391;48.678;9.280;2022-10-16T09:05:35;4.97;;;2.50;;
8708;SDS011;4391;48.678;9.280;2022-10-16T09:08:16;5.78;;;2.00;;
8708;SDS011;4391;48.678;9.280;2022-10-16T09:10:53;9.07;;;2.35;;
8708;SDS011;4391;48.678;9.280;2022-10-16T09:13:26;6.53;;;1.77;;
8708;SDS011;4391;48.678;9.280;2022-10-16T09:15:57;5.72;;;1.50;;
8708;SDS011;4391;48.678;9.280;2022-10-16T09:18:34;5.30;;;1.40;;
8708;SDS011;4391;48.678;9.280;2022-10-16T09:21:08;6.95;;;1.30;;
8708;SDS011;4391;48.678;9.280;2022-10-16T09:23:39;6.10;;;1.58;;
8708;SDS011;4391;48.678;9.280;2022-10-16T09:26:09;3.50;;;1.23;;
8708;SDS011;4391;48.678;9.280;2022-10-16T09:28:39;4.90;;;1.05;;
8708;SDS011;4391;48.678;9.280;2022-10-16T09:31:08;3.20;;;0.90;;
8708;SDS011;4391;48.678;9.280;2022-10-16T09:33:42;2.40;;;1.00;;
8708;SDS011;4391;48.678;9.280;2022-10-16T09:36:11;5.03;;;1.08;;
8708;SDS011;4391;48.678;9.280;2022-10-16T09:38:40;4.18;;;1.00;;
8708;SDS011;4391;48.678;9.280;2022-10-16T09:41:12;4.63;;;0.80;;
8708;SDS011;4391;48.678;9.280;2022-10-16T09:43:46;7.57;;;1.17;;
8708;SDS011;4391;48.678;9.280;2022-10-16T09:46:21;3.08;;;0.98;;
8708;SDS011;4391;48.678;9.280;2022-10-16T09:48:54;5.15;;;1.30;;
8708;SDS011;4391;48.678;9.280;2022-10-16T09:51:25;2.67;;;0.82;;
8708;SDS011;4391;48.678;9.280;2022-10-16T09:53:55;5.93;;;0.95;;
8708;SDS011;4391;48.678;9.280;2022-10-16T09:56:24;4.27;;;0.90;;
8708;SDS011;4391;48.678;9.280;2022-10-16T09:58:52;2.22;;;0.70;;
8708;SDS011;4391;48.678;9.280;2022-10-16T10:01:20;3.92;;;0.85;;
8708;SDS011;4391;48.678;9.280;2022-10-16T10:03:47;4.15;;;0.90;;
8708;SDS011;4391;48.678;9.280;2022-10-16T10:06:23;3.00;;;1.10;;
8708;SDS011;4391;48.678;9.280;2022-10-16T10:08:58;3.73;;;0.80;;
8708;SDS011;4391;48.678;9.280;2022-10-16T10:11:36;3.80;;;1.02;;
8708;SDS011;4391;48.678;9.280;2022-10-16T10:14:18;7.90;;;1.15;;
8708;SDS011;4391;48.678;9.280;2022-10-16T10:17:02;4.07;;;1.10;;
8708;SDS011;4391;48.678;9.280;2022-10-16T10:19:38;4.10;;;0.80;;
8708;SDS011;4391;48.678;9.280;2022-10-16T10:22:15;3.23;;;1.10;;
8708;SDS011;4391;48.678;9.280;2022-10-16T10:24:43;4.15;;;1.10;;
8708;SDS011;4391;48.678;9.280;2022-10-16T10:27:11;4.85;;;1.10;;
8708;SDS011;4391;48.678;9.280;2022-10-16T10:29:45;2.65;;;1.02;;
8708;SDS011;4391;48.678;9.280;2022-10-16T10:32:24;3.60;;;0.90;;
8708;SDS011;4391;48.678;9.280;2022-10-16T10:35:02;5.60;;;0.80;;
8708;SDS011;4391;48.678;9.280;2022-10-16T10:37:43;3.03;;;0.87;;
8708;SDS011;4391;48.678;9.280;2022-10-16T10:40:29;4.38;;;0.90;;
8708;SDS011;4391;48.678;9.280;2022-10-16T10:43:06;2.88;;;0.93;;
8708;SDS011;4391;48.678;9.280;2022-10-16T10:45:42;5.00;;;0.80;;
8708;SDS011;4391;48.678;9.280;2022-10-16T10:48:16;2.97;;;0.80;;
8708;SDS011;4391;48.678;9.280;2022-10-16T10:50:54;4.23;;;0.90;;
8708;SDS011;4391;48.678;9.280;2022-10-16T10:53:29;2.93;;;0.90;;
8708;SDS011;4391;48.678;9.280;2022-10-16T10:56:05;3.53;;;0.68;;
8708;SDS011;4391;48.678;9.280;2022-10-16T10:58:45;4.38;;;0.90;;
8708;SDS011;4391;48.678;9.280;2022-10-16T11:01:25;5.40;;;1.00;;
8708;SDS011;4391;48.678;9.280;2022-10-16T11:04:01;5.80;;;0.77;;
8708;SDS011;4391;48.678;9.280;2022-10-16T11:06:40;2.33;;;0.75;;
8708;SDS011;4391;48.678;9.280;2022-10-16T11:09:15;3.40;;;0.70;;
8708;SDS011;4391;48.678;9.280;2022-10-16T11:11:45;2.03;;;0.70;;
8708;SDS011;4391;48.678;9.280;2022-10-16T11:14:17;5.95;;;0.98;;
8708;SDS011;4391;48.678;9.280;2022-10-16T11:16:48;4.43;;;0.90;;
8708;SDS011;4391;48.678;9.280;2022-10-16T11:19:21;4.72;;;0.80;;
8708;SDS011;4391;48.678;9.280;2022-10-16T11:21:55;6.85;;;0.80;;
8708;SDS011;4391;48.678;9.280;2022-10-16T11:24:33;3.65;;;0.63;;
8708;SDS011;4391;48.678;9.280;2022-10-16T11:27:07;2.23;;;0.80;;
8708;SDS011;4391;48.678;9.280;2022-10-16T11:29:40;3.33;;;0.80;;
8708;SDS011;4391;48.678;9.280;2022-10-16T11:32:15;3.00;;;0.90;;
8708;SDS011;4391;48.678;9.280;2022-10-16T11:34:49;4.13;;;0.95;;
8708;SDS011;4391;48.678;9.280;2022-10-16T11:37:20;7.00;;;1.02;;
8708;SDS011;4391;48.678;9.280;2022-10-16T11:39:54;2.03;;;0.83;;
8708;SDS011;4391;48.678;9.280;2022-10-16T11:42:27;1.67;;;0.70;;
8708;SDS011;4391;48.678;9.280;2022-10-16T11:45:04;5.07;;;1.00;;
8708;SDS011;4391;48.678;9.280;2022-10-16T11:47:45;4.22;;;0.90;;
8708;SDS011;4391;48.678;9.280;2022-10-16T11:50:18;4.80;;;0.75;;
8708;SDS011;4391;48.678;9.280;2022-10-16T11:52:52;2.47;;;0.73;;
8708;SDS011;4391;48.678;9.280;2022-10-16T11:55:28;2.73;;;0.60;;
8708;SDS011;4391;48.678;9.280;2022-10-16T11:57:59;4.82;;;0.60;;
8708;SDS011;4391;48.678;9.280;2022-10-16T12:00:30;3.72;;;0.70;;
8708;SDS011;4391;48.678;9.280;2022-10-16T12:03:05;4.82;;;0.60;;
8708;SDS011;4391;48.678;9.280;2022-10-16T12:05:49;5.95;;;0.65;;
8708;SDS011;4391;48.678;9.280;2022-10-16T12:08:24;1.95;;;0.60;;
8708;SDS011;4391;48.678;9.280;2022-10-16T12:10:52;5.13;;;1.23;;
8708;SDS011;4391;48.678;9.280;2022-10-16T12:13:27;2.03;;;0.70;;
8708;SDS011;4391;48.678;9.280;2022-10-16T12:16:03;3.42;;;0.68;;
8708;SDS011;4391;48.678;9.280;2022-10-16T12:18:46;3.58;;;0.65;;
8708;SDS011;4391;48.678;9.280;2022-10-16T12:21:14;2.50;;;0.60;;
8708;SDS011;4391;48.678;9.280;2022-10-16T12:23:46;3.10;;;0.70;;
8708;SDS011;4391;48.678;9.280;2022-10-16T12:26:24;3.67;;;0.90;;
8708;SDS011;4391;48.678;9.280;2022-10-16T12:28:52;5.88;;;0.80;;
8708;SDS011;4391;48.678;9.280;2022-10-16T12:31:19;2.25;;;0.60;;
8708;SDS011;4391;48.678;9.280;2022-10-16T12:33:53;3.30;;;0.70;;
8708;SDS011;4391;48.678;9.280;2022-10-16T12:36:27;3.17;;;0.70;;
8708;SDS011;4391;48.678;9.280;2022-10-16T12:38:56;5.07;;;0.60;;
8708;SDS011;4391;48.678;9.280;2022-10-16T12:41:26;2.40;;;0.70;;
8708;SDS011;4391;48.678;9.280;2022-10-16T12:43:54;3.75;;;0.80;;
8708;SDS011;4391;48.678;9.280;2022-10-16T12:46:22;4.53;;;0.77;;
8708;SDS011;4391;48.678;9.280;2022-10-16T12:49:04;4.57;;;0.73;;
8708;SDS011;4391;48.678;9.280;2022-10-16T12:51:34;1.88;;;0.60;;
8708;SDS011;4391;48.678;9.280;2022-10-16T12:54:03;4.40;;;0.70;;
8708;SDS011;4391;48.678;9.280;2022-10-16T12:56:41;3.10;;;0.80;;
8708;SDS011;4391;48.678;9.280;2022-10-16T12:59:19;2.85;;;0.80;;
8708;SDS011;4391;48.678;9.280;2022-10-16T13:01:56;2.35;;;0.60;;
8708;SDS011;4391;48.678;9.280;2022-10-16T13:04:45;2.58;;;0.75;;
8708;SDS011;4391;48.678;9.280;2022-10-16T13:07:29;2.47;;;0.70;;
8708;SDS011;4391;48.678;9.280;2022-10-16T13:10:10;4.43;;;1.10;;
8708;SDS011;4391;48.678;9.280;2022-10-16T13:12:53;2.22;;;0.80;;
8708;SDS011;4391;48.678;9.280;2022-10-16T13:15:46;2.67;;;0.70;;
8708;SDS011;4391;48.678;9.280;2022-10-16T13:18:25;2.95;;;0.80;;
8708;SDS011;4391;48.678;9.280;2022-10-16T13:21:03;4.55;;;0.80;;
8708;SDS011;4391;48.678;9.280;2022-10-16T13:23:42;4.90;;;0.77;;
8708;SDS011;4391;48.678;9.280;2022-10-16T13:26:18;4.77;;;1.00;;
8708;SDS011;4391;48.678;9.280;2022-10-16T13:28:54;3.72;;;0.80;;
8708;SDS011;4391;48.678;9.280;2022-10-16T13:31:25;3.03;;;0.80;;
8708;SDS011;4391;48.678;9.280;2022-10-16T13:33:52;3.80;;;0.90;;
8708;SDS011;4391;48.678;9.280;2022-10-16T13:36:24;2.90;;;0.70;;
8708;SDS011;4391;48.678;9.280;2022-10-16T13:41:37;1.30;;;0.60;;
8708;SDS011;4391;48.678;9.280;2022-10-16T13:44:07;4.10;;;0.70;;
8708;SDS011;4391;48.678;9.280;2022-10-16T13:46:40;3.88;;;0.80;;
8708;SDS011;4391;48.678;9.280;2022-10-16T13:49:11;2.85;;;0.80;;
8708;SDS011;4391;48.678;9.280;2022-10-16T13:51:39;5.43;;;1.00;;
8708;SDS011;4391;48.678;9.280;2022-10-16T13:54:07;4.03;;;1.10;;
8708;SDS011;4391;48.678;9.280;2022-10-16T13:56:38;4.07;;;0.90;;
8708;SDS011;4391;48.678;9.280;2022-10-16T13:59:20;3.00;;;1.10;;
8708;SDS011;4391;48.678;9.280;2022-10-16T14:01:50;3.40;;;1.05;;
8708;SDS011;4391;48.678;9.280;2022-10-16T14:04:20;3.25;;;1.15;;
8708;SDS011;4391;48.678;9.280;2022-10-16T14:06:48;5.97;;;1.13;;
8708;SDS011;4391;48.678;9.280;2022-10-16T14:09:19;3.57;;;0.87;;
8708;SDS011;4391;48.678;9.280;2022-10-16T14:11:49;3.67;;;0.90;;
8708;SDS011;4391;48.678;9.280;2022-10-16T14:14:20;4.80;;;1.20;;
8708;SDS011;4391;48.678;9.280;2022-10-16T14:16:47;5.43;;;1.27;;
8708;SDS011;4391;48.678;9.280;2022-10-16T14:19:15;5.55;;;0.93;;
8708;SDS011;4391;48.678;9.280;2022-10-16T14:21:46;2.73;;;0.90;;
8708;SDS011;4391;48.678;9.280;2022-10-16T14:24:14;4.80;;;1.00;;
8708;SDS011;4391;48.678;9.280;2022-10-16T14:26:51;6.65;;;1.13;;
8708;SDS011;4391;48.678;9.280;2022-10-16T14:29:21;3.85;;;1.10;;
8708;SDS011;4391;48.678;9.280;2022-10-16T14:31:54;6.53;;;1.00;;
8708;SDS011;4391;48.678;9.280;2022-10-16T14:34:26;3.60;;;0.97;;
8708;SDS011;4391;48.678;9.280;2022-10-16T14:36:55;5.63;;;1.25;;
8708;SDS011;4391;48.678;9.280;2022-10-16T14:39:22;2.67;;;0.90;;
8708;SDS011;4391;48.678;9.280;2022-10-16T14:41:51;3.40;;;1.02;;
8708;SDS011;4391;48.678;9.280;2022-10-16T14:44:23;2.42;;;1.05;;
8708;SDS011;4391;48.678;9.280;2022-10-16T14:46:55;4.73;;;1.07;;
8708;SDS011;4391;48.678;9.280;2022-10-16T14:49:22;4.53;;;1.02;;
8708;SDS011;4391;48.678;9.280;2022-10-16T14:51:50;4.68;;;1.02;;
8708;SDS011;4391;48.678;9.280;2022-10-16T14:54:18;6.80;;;1.20;;
8708;SDS011;4391;48.678;9.280;2022-10-16T14:56:46;3.63;;;1.00;;
8708;SDS011;4391;48.678;9.280;2022-10-16T14:59:17;2.80;;;1.00;;
8708;SDS011;4391;48.678;9.280;2022-10-16T15:01:56;5.32;;;1.25;;
8708;SDS011;4391;48.678;9.280;2022-10-16T15:04:23;4.68;;;1.13;;
8708;SDS011;4391;48.678;9.280;2022-10-16T15:06:50;7.97;;;1.20;;
8708;SDS011;4391;48.678;9.280;2022-10-16T15:09:17;4.53;;;1.58;;
8708;SDS011;4391;48.678;9.280;2022-10-16T15:11:44;2.47;;;0.90;;
8708;SDS011;4391;48.678;9.280;2022-10-16T15:14:12;6.07;;;1.00;;
8708;SDS011;4391;48.678;9.280;2022-10-16T15:16:39;2.90;;;1.15;;
8708;SDS011;4391;48.678;9.280;2022-10-16T15:19:07;10.50;;;1.10;;
8708;SDS011;4391;48.678;9.280;2022-10-16T15:21:34;7.90;;;1.52;;
8708;SDS011;4391;48.678;9.280;2022-10-16T15:24:00;4.97;;;1.17;;
8708;SDS011;4391;48.678;9.280;2022-10-16T15:26:27;7.68;;;1.20;;
8708;SDS011;4391;48.678;9.280;2022-10-16T15:28:55;2.30;;;0.93;;
8708;SDS011;4391;48.678;9.280;2022-10-16T15:31:22;6.65;;;1.08;;
8708;SDS011;4391;48.678;9.280;2022-10-16T15:33:50;5.55;;;1.55;;
8708;SDS011;4391;48.678;9.280;2022-10-16T15:36:25;3.50;;;1.20;;